createdAt,value
2017-10-31T00:00:37.360Z,101433.66
2017-10-31T00:01:43.294Z,101432.83
2017-10-31T00:02:49.147Z,101439.78
2017-10-31T00:03:55.203Z,101433.73
2017-10-31T00:05:01.259Z,101437.28
2017-10-31T00:06:07.343Z,101434.30
2017-10-31T00:07:13.430Z,101432.53
2017-10-31T00:08:19.481Z,101435.97
2017-10-31T00:09:25.561Z,101433.40
2017-10-31T00:10:31.608Z,101432.97
2017-10-31T00:11:37.709Z,101435.10
2017-10-31T00:12:43.765Z,101432.12
2017-10-31T00:13:49.922Z,101434.23
2017-10-31T00:14:55.990Z,101436.38
2017-10-31T00:16:02.097Z,101430.80
2017-10-31T00:17:08.154Z,101439.41
2017-10-31T00:18:13.686Z,101434.20
2017-10-31T00:19:19.781Z,101434.17
2017-10-31T00:20:25.848Z,101438.01
2017-10-31T00:21:31.970Z,101434.45
2017-10-31T00:22:38.037Z,101431.89
2017-10-31T00:23:44.118Z,101423.59
2017-10-31T00:24:50.265Z,101433.23
2017-10-31T00:25:56.370Z,101431.13
2017-10-31T00:27:02.468Z,101435.94
2017-10-31T00:28:08.544Z,101425.88
2017-10-31T00:29:14.610Z,101438.88
2017-10-31T00:30:20.712Z,101435.47
2017-10-31T00:31:26.787Z,101438.45
2017-10-31T00:32:32.668Z,101437.97
2017-10-31T00:33:38.546Z,101436.64
2017-10-31T00:34:44.610Z,101442.75
2017-10-31T00:35:53.475Z,101436.67
2017-10-31T00:37:02.652Z,101439.78
2017-10-31T00:38:08.754Z,101434.50
2017-10-31T00:39:14.816Z,101436.23
2017-10-31T00:40:20.701Z,101437.47
2017-10-31T00:41:26.743Z,101435.33
2017-10-31T00:42:32.848Z,101439.23
2017-10-31T00:43:38.932Z,101441.84
2017-10-31T00:44:45.003Z,101437.50
2017-10-31T00:45:51.078Z,101444.42
2017-10-31T00:46:57.161Z,101444.31
2017-10-31T00:48:05.541Z,101441.19
2017-10-31T00:49:11.592Z,101439.38
2017-10-31T00:50:17.642Z,101434.63
2017-10-31T00:51:23.340Z,101443.41
2017-10-31T00:52:31.240Z,101438.11
2017-10-31T00:53:37.327Z,101438.46
2017-10-31T00:54:43.433Z,101439.84
2017-10-31T00:55:49.491Z,101435.50
2017-10-31T00:56:55.565Z,101439.84
2017-10-31T00:58:01.656Z,101441.16
2017-10-31T00:59:07.715Z,101435.81
2017-10-31T01:00:13.791Z,101437.91
2017-10-31T01:01:19.684Z,101428.73
2017-10-31T01:02:26.076Z,101433.05
2017-10-31T01:03:32.135Z,101433.52
2017-10-31T01:04:38.198Z,101434.55
2017-10-31T01:05:44.253Z,101431.50
2017-10-31T01:06:50.365Z,101427.04
2017-10-31T01:07:56.545Z,101427.67
2017-10-31T01:09:02.671Z,101437.67
2017-10-31T01:10:08.542Z,101431.08
2017-10-31T01:11:15.005Z,101434.52
2017-10-31T01:12:21.103Z,101424.55
2017-10-31T01:13:27.233Z,101429.81
2017-10-31T01:14:33.288Z,101431.98
2017-10-31T01:15:39.345Z,101428.11
2017-10-31T01:16:45.235Z,101432.09
2017-10-31T01:17:51.291Z,101435.10
2017-10-31T01:18:56.984Z,101433.37
2017-10-31T01:20:02.923Z,101437.28
2017-10-31T01:21:08.965Z,101433.77
2017-10-31T01:22:15.064Z,101429.45
2017-10-31T01:23:21.273Z,101426.37
2017-10-31T01:24:27.332Z,101424.08
2017-10-31T01:25:33.449Z,101418.42
2017-10-31T01:26:39.483Z,101416.28
2017-10-31T01:27:45.579Z,101417.86
2017-10-31T01:28:51.652Z,101413.52
2017-10-31T01:29:57.741Z,101416.64
2017-10-31T01:31:03.800Z,101404.94
2017-10-31T01:32:09.876Z,101410.42
2017-10-31T01:33:15.243Z,101413.67
2017-10-31T01:34:21.323Z,101414.06
2017-10-31T01:35:27.393Z,101415.20
2017-10-31T01:36:33.439Z,101413.90
2017-10-31T01:37:39.532Z,101415.30
2017-10-31T01:38:45.622Z,101413.24
2017-10-31T01:39:53.932Z,101418.90
2017-10-31T01:41:00.036Z,101415.86
2017-10-31T01:42:06.125Z,101419.25
2017-10-31T01:43:17.488Z,101421.82
2017-10-31T01:44:23.529Z,101428.30
2017-10-31T01:45:29.614Z,101423.86
2017-10-31T01:46:35.299Z,101419.20
2017-10-31T01:47:41.412Z,101421.38
2017-10-31T01:48:47.502Z,101421.42
2017-10-31T01:49:53.544Z,101419.21
2017-10-31T01:50:59.592Z,101413.16
2017-10-31T01:52:05.657Z,101420.16
2017-10-31T01:53:11.735Z,101419.25
2017-10-31T01:54:17.774Z,101420.55
2017-10-31T01:55:23.479Z,101414.86
2017-10-31T01:56:29.364Z,101419.64
2017-10-31T01:57:35.441Z,101420.51
2017-10-31T01:58:41.374Z,101414.77
2017-10-31T01:59:47.414Z,101417.86
2017-10-31T02:00:53.486Z,101421.73
2017-10-31T02:01:59.579Z,101418.30
2017-10-31T02:03:05.306Z,101417.03
2017-10-31T02:04:10.827Z,101419.08
2017-10-31T02:05:16.903Z,101418.55
2017-10-31T02:06:26.176Z,101412.36
2017-10-31T02:07:32.247Z,101416.15
2017-10-31T02:08:38.188Z,101417.01
2017-10-31T02:09:44.233Z,101413.58
2017-10-31T02:10:50.122Z,101413.67
2017-10-31T02:11:55.844Z,101411.89
2017-10-31T02:13:03.217Z,101411.94
2017-10-31T02:14:09.334Z,101407.77
2017-10-31T02:15:15.377Z,101408.51
2017-10-31T02:16:21.095Z,101411.11
2017-10-31T02:17:29.816Z,101410.67
2017-10-31T02:18:35.924Z,101412.94
2017-10-31T02:19:41.277Z,101402.89
2017-10-31T02:20:46.617Z,101406.47
2017-10-31T02:21:51.958Z,101408.30
2017-10-31T02:22:57.719Z,101405.73
2017-10-31T02:24:04.888Z,101406.55
2017-10-31T02:25:10.255Z,101406.06
2017-10-31T02:26:15.623Z,101406.02
2017-10-31T02:27:20.960Z,101402.36
2017-10-31T02:28:29.528Z,101406.80
2017-10-31T02:29:34.873Z,101403.67
2017-10-31T02:30:40.253Z,101409.84
2017-10-31T02:31:45.650Z,101410.24
2017-10-31T02:32:50.811Z,101404.97
2017-10-31T02:33:55.956Z,101411.89
2017-10-31T02:35:01.678Z,101411.98
2017-10-31T02:36:07.053Z,101413.19
2017-10-31T02:37:12.745Z,101414.94
2017-10-31T02:38:18.126Z,101413.72
2017-10-31T02:39:23.642Z,101407.58
2017-10-31T02:40:29.025Z,101408.06
2017-10-31T02:41:34.385Z,101408.50
2017-10-31T02:42:43.011Z,101409.33
2017-10-31T02:43:48.368Z,101410.20
2017-10-31T02:44:53.536Z,101411.89
2017-10-31T02:45:58.706Z,101409.23
2017-10-31T02:47:04.223Z,101408.41
2017-10-31T02:48:09.976Z,101408.41
2017-10-31T02:49:15.322Z,101411.45
2017-10-31T02:50:20.712Z,101413.53
2017-10-31T02:51:26.061Z,101409.66
2017-10-31T02:52:31.422Z,101413.93
2017-10-31T02:53:36.797Z,101415.81
2017-10-31T02:54:42.136Z,101420.55
2017-10-31T02:55:47.809Z,101418.27
2017-10-31T02:56:53.149Z,101418.66
2017-10-31T02:57:58.329Z,101425.72
2017-10-31T02:59:03.485Z,101421.75
2017-10-31T03:00:08.826Z,101422.14
2017-10-31T03:01:13.992Z,101412.95
2017-10-31T03:02:19.871Z,101412.09
2017-10-31T03:03:25.388Z,101422.48
2017-10-31T03:04:30.519Z,101416.37
2017-10-31T03:05:35.848Z,101420.69
2017-10-31T03:06:40.996Z,101419.91
2017-10-31T03:07:49.244Z,101414.69
2017-10-31T03:08:54.599Z,101415.23
2017-10-31T03:10:00.329Z,101415.72
2017-10-31T03:11:05.473Z,101416.53
2017-10-31T03:12:11.777Z,101418.70
2017-10-31T03:13:16.944Z,101421.41
2017-10-31T03:14:22.291Z,101417.74
2017-10-31T03:15:27.782Z,101417.78
2017-10-31T03:16:33.457Z,101417.74
2017-10-31T03:17:38.918Z,101412.47
2017-10-31T03:18:44.303Z,101425.24
2017-10-31T03:19:50.024Z,101425.29
2017-10-31T03:20:55.397Z,101424.89
2017-10-31T03:22:01.070Z,101424.02
2017-10-31T03:23:06.447Z,101426.06
2017-10-31T03:24:11.800Z,101415.95
2017-10-31T03:25:19.060Z,101416.30
2017-10-31T03:26:24.410Z,101417.59
2017-10-31T03:27:29.576Z,101420.59
2017-10-31T03:28:34.920Z,101418.91
2017-10-31T03:29:40.289Z,101420.59
2017-10-31T03:30:45.645Z,101420.63
2017-10-31T03:31:51.347Z,101422.44
2017-10-31T03:32:57.051Z,101422.48
2017-10-31T03:34:02.468Z,101424.18
2017-10-31T03:35:07.830Z,101427.75
2017-10-31T03:36:12.993Z,101432.63
2017-10-31T03:37:18.350Z,101431.72
2017-10-31T03:38:24.435Z,101436.06
2017-10-31T03:39:29.832Z,101432.59
2017-10-31T03:40:35.163Z,101435.92
2017-10-31T03:41:40.551Z,101429.41
2017-10-31T03:42:45.932Z,101437.67
2017-10-31T03:43:51.430Z,101432.09
2017-10-31T03:44:57.184Z,101429.06
2017-10-31T03:46:02.546Z,101431.19
2017-10-31T03:47:08.283Z,101434.19
2017-10-31T03:48:13.418Z,101428.04
2017-10-31T03:49:18.588Z,101435.40
2017-10-31T03:50:23.784Z,101434.91
2017-10-31T03:51:29.105Z,101434.08
2017-10-31T03:52:34.305Z,101429.30
2017-10-31T03:53:39.644Z,101427.12
2017-10-31T03:54:45.053Z,101433.70
2017-10-31T03:55:50.378Z,101434.09
2017-10-31T03:56:57.928Z,101431.86
2017-10-31T03:58:03.083Z,101430.50
2017-10-31T03:59:08.263Z,101430.61
2017-10-31T04:00:13.621Z,101437.56
2017-10-31T04:01:18.756Z,101435.34
2017-10-31T04:02:24.082Z,101434.08
2017-10-31T04:03:29.836Z,101432.39
2017-10-31T04:04:35.522Z,101432.34
2017-10-31T04:05:40.855Z,101434.58
2017-10-31T04:06:46.557Z,101432.00
2017-10-31T04:07:51.920Z,101428.80
2017-10-31T04:08:57.086Z,101427.89
2017-10-31T04:10:02.456Z,101428.77
2017-10-31T04:11:08.139Z,101434.91
2017-10-31T04:12:14.420Z,101433.16
2017-10-31T04:13:19.949Z,101429.30
2017-10-31T04:14:26.064Z,101431.47
2017-10-31T04:15:31.377Z,101431.95
2017-10-31T04:16:37.451Z,101435.09
2017-10-31T04:17:43.179Z,101439.41
2017-10-31T04:18:49.092Z,101433.69
2017-10-31T04:19:55.130Z,101438.58
2017-10-31T04:21:00.836Z,101437.66
2017-10-31T04:22:06.202Z,101442.36
2017-10-31T04:23:11.900Z,101444.91
2017-10-31T04:24:17.667Z,101440.02
2017-10-31T04:25:23.754Z,101437.86
2017-10-31T04:26:29.788Z,101439.22
2017-10-31T04:27:35.912Z,101446.55
2017-10-31T04:28:42.001Z,101441.34
2017-10-31T04:29:48.084Z,101445.83
2017-10-31T04:30:54.499Z,101445.02
2017-10-31T04:32:00.565Z,101443.28
2017-10-31T04:33:06.634Z,101437.27
2017-10-31T04:34:12.714Z,101438.97
2017-10-31T04:35:23.020Z,101438.63
2017-10-31T04:36:29.097Z,101438.97
2017-10-31T04:37:35.144Z,101442.84
2017-10-31T04:38:41.215Z,101440.61
2017-10-31T04:39:47.324Z,101438.05
2017-10-31T04:40:52.678Z,101438.11
2017-10-31T04:41:58.718Z,101436.31
2017-10-31T04:43:04.821Z,101439.03
2017-10-31T04:44:10.180Z,101442.98
2017-10-31T04:45:16.229Z,101441.24
2017-10-31T04:46:22.295Z,101436.94
2017-10-31T04:47:28.675Z,101437.37
2017-10-31T04:48:34.431Z,101438.20
2017-10-31T04:49:40.524Z,101435.64
2017-10-31T04:50:46.581Z,101439.21
2017-10-31T04:51:52.656Z,101434.72
2017-10-31T04:52:58.748Z,101435.97
2017-10-31T04:54:04.575Z,101434.63
2017-10-31T04:55:09.940Z,101430.80
2017-10-31T04:56:15.453Z,101431.23
2017-10-31T04:57:20.606Z,101431.62
2017-10-31T04:58:25.762Z,101428.95
2017-10-31T04:59:31.004Z,101434.67
2017-10-31T05:00:36.523Z,101432.39
2017-10-31T05:01:42.018Z,101432.78
2017-10-31T05:02:47.771Z,101431.62
2017-10-31T05:03:53.509Z,101435.97
2017-10-31T05:04:59.596Z,101430.99
2017-10-31T05:06:05.677Z,101428.19
2017-10-31T05:07:11.391Z,101430.41
2017-10-31T05:08:17.485Z,101430.50
2017-10-31T05:09:23.538Z,101429.16
2017-10-31T05:10:29.621Z,101434.72
2017-10-31T05:11:40.135Z,101434.72
2017-10-31T05:12:46.175Z,101430.75
2017-10-31T05:13:52.243Z,101435.94
2017-10-31T05:14:58.351Z,101431.67
2017-10-31T05:16:04.433Z,101433.45
2017-10-31T05:17:10.534Z,101433.80
2017-10-31T05:18:16.618Z,101439.11
2017-10-31T05:19:22.520Z,101436.95
2017-10-31T05:20:28.608Z,101436.16
2017-10-31T05:21:34.657Z,101430.85
2017-10-31T05:22:44.535Z,101432.11
2017-10-31T05:23:50.627Z,101434.38
2017-10-31T05:24:56.736Z,101441.38
2017-10-31T05:26:02.866Z,101435.69
2017-10-31T05:27:08.951Z,101437.03
2017-10-31T05:28:19.584Z,101434.85
2017-10-31T05:29:25.652Z,101437.90
2017-10-31T05:30:34.070Z,101435.30
2017-10-31T05:31:40.161Z,101437.47
2017-10-31T05:32:46.228Z,101430.90
2017-10-31T05:33:52.324Z,101431.28
2017-10-31T05:34:58.443Z,101435.69
2017-10-31T05:36:04.522Z,101434.66
2017-10-31T05:37:10.600Z,101434.67
2017-10-31T05:38:17.312Z,101436.46
2017-10-31T05:39:23.370Z,101435.73
2017-10-31T05:40:29.451Z,101435.59
2017-10-31T05:41:35.530Z,101433.89
2017-10-31T05:42:41.629Z,101434.28
2017-10-31T05:43:51.737Z,101440.86
2017-10-31T05:44:57.854Z,101439.94
2017-10-31T05:46:04.749Z,101440.42
2017-10-31T05:47:10.841Z,101442.59
2017-10-31T05:48:16.942Z,101448.20
2017-10-31T05:49:23.041Z,101450.91
2017-10-31T05:50:34.171Z,101451.40
2017-10-31T05:51:41.043Z,101452.31
2017-10-31T05:52:47.135Z,101450.05
2017-10-31T05:53:53.230Z,101449.08
2017-10-31T05:54:59.390Z,101449.94
2017-10-31T05:56:05.320Z,101451.27
2017-10-31T05:57:11.431Z,101450.44
2017-10-31T05:58:17.517Z,101452.55
2017-10-31T05:59:23.598Z,101454.26
2017-10-31T06:00:29.699Z,101454.20
2017-10-31T06:01:35.578Z,101457.88
2017-10-31T06:02:41.646Z,101454.00
2017-10-31T06:03:47.807Z,101454.53
2017-10-31T06:04:53.948Z,101457.91
2017-10-31T06:06:00.052Z,101458.36
2017-10-31T06:07:06.131Z,101456.66
2017-10-31T06:08:12.206Z,101457.09
2017-10-31T06:09:18.298Z,101452.70
2017-10-31T06:10:24.501Z,101456.22
2017-10-31T06:11:38.124Z,101464.41
2017-10-31T06:12:46.179Z,101463.58
2017-10-31T06:13:52.080Z,101464.89
2017-10-31T06:14:58.207Z,101464.92
2017-10-31T06:16:04.333Z,101460.63
2017-10-31T06:17:10.386Z,101463.67
2017-10-31T06:18:16.482Z,101462.36
2017-10-31T06:19:22.604Z,101466.28
2017-10-31T06:20:28.733Z,101463.31
2017-10-31T06:21:40.271Z,101460.66
2017-10-31T06:22:51.863Z,101469.41
2017-10-31T06:24:03.355Z,101469.75
2017-10-31T06:25:14.967Z,101466.23
2017-10-31T06:26:26.460Z,101461.49
2017-10-31T06:27:38.038Z,101469.33
2017-10-31T06:28:49.612Z,101472.45
2017-10-31T06:30:01.290Z,101467.66
2017-10-31T06:31:12.707Z,101471.06
2017-10-31T06:32:23.020Z,101475.50
2017-10-31T06:33:29.096Z,101471.23
2017-10-31T06:34:35.190Z,101473.72
2017-10-31T06:35:41.294Z,101474.97
2017-10-31T06:36:47.358Z,101471.85
2017-10-31T06:37:53.081Z,101475.33
2017-10-31T06:38:59.193Z,101468.45
2017-10-31T06:40:04.950Z,101475.80
2017-10-31T06:41:11.041Z,101476.68
2017-10-31T06:42:17.124Z,101471.98
2017-10-31T06:43:23.206Z,101478.07
2017-10-31T06:44:29.260Z,101464.62
2017-10-31T06:45:35.342Z,101472.45
2017-10-31T06:46:41.475Z,101474.11
2017-10-31T06:47:47.539Z,101473.25
2017-10-31T06:48:53.607Z,101475.33
2017-10-31T06:49:59.808Z,101478.80
2017-10-31T06:51:05.959Z,101482.24
2017-10-31T06:52:12.024Z,101481.37
2017-10-31T06:53:18.085Z,101480.46
2017-10-31T06:54:24.900Z,101477.94
2017-10-31T06:55:30.965Z,101480.95
2017-10-31T06:56:37.054Z,101477.51
2017-10-31T06:57:43.096Z,101479.98
2017-10-31T06:58:49.188Z,101482.55
2017-10-31T06:59:55.267Z,101483.02
2017-10-31T07:01:01.383Z,101485.64
2017-10-31T07:02:07.455Z,101483.86
2017-10-31T07:03:13.493Z,101480.36
2017-10-31T07:04:22.226Z,101488.20
2017-10-31T07:05:28.297Z,101486.80
2017-10-31T07:06:34.389Z,101483.37
2017-10-31T07:07:40.254Z,101487.64
2017-10-31T07:08:46.317Z,101492.38
2017-10-31T07:09:52.388Z,101487.20
2017-10-31T07:10:58.269Z,101485.84
2017-10-31T07:12:04.362Z,101489.89
2017-10-31T07:13:10.425Z,101495.56
2017-10-31T07:14:16.484Z,101490.25
2017-10-31T07:15:22.560Z,101490.34
2017-10-31T07:16:28.671Z,101490.47
2017-10-31T07:17:34.752Z,101486.98
2017-10-31T07:18:40.823Z,101489.95
2017-10-31T07:19:46.870Z,101490.38
2017-10-31T07:20:52.957Z,101494.42
2017-10-31T07:21:59.121Z,101482.25
2017-10-31T07:23:05.202Z,101487.77
2017-10-31T07:24:11.291Z,101492.08
2017-10-31T07:25:17.426Z,101486.38
2017-10-31T07:26:23.511Z,101480.91
2017-10-31T07:27:29.589Z,101486.57
2017-10-31T07:28:35.517Z,101485.26
2017-10-31T07:29:42.493Z,101481.00
2017-10-31T07:30:48.617Z,101483.04
2017-10-31T07:31:54.483Z,101484.40
2017-10-31T07:33:00.587Z,101485.31
2017-10-31T07:34:06.652Z,101489.62
2017-10-31T07:35:12.714Z,101489.28
2017-10-31T07:36:18.939Z,101490.53
2017-10-31T07:37:25.038Z,101494.45
2017-10-31T07:38:31.129Z,101490.87
2017-10-31T07:39:37.254Z,101491.31
2017-10-31T07:40:43.593Z,101491.41
2017-10-31T07:41:49.752Z,101494.45
2017-10-31T07:42:55.962Z,101493.20
2017-10-31T07:44:02.204Z,101494.98
2017-10-31T07:45:08.304Z,101498.37
2017-10-31T07:46:14.395Z,101501.47
2017-10-31T07:47:20.517Z,101493.92
2017-10-31T07:48:26.732Z,101497.37
2017-10-31T07:49:33.370Z,101495.52
2017-10-31T07:50:40.493Z,101499.22
2017-10-31T07:51:47.526Z,101497.88
2017-10-31T07:52:54.043Z,101499.18
2017-10-31T07:54:00.653Z,101495.59
2017-10-31T07:55:07.376Z,101491.89
2017-10-31T07:56:14.853Z,101494.01
2017-10-31T07:57:22.862Z,101495.69
2017-10-31T07:58:29.368Z,101496.48
2017-10-31T07:59:35.801Z,101491.14
2017-10-31T08:00:42.626Z,101499.27
2017-10-31T08:01:49.600Z,101499.80
2017-10-31T08:02:56.405Z,101496.70
2017-10-31T08:04:03.854Z,101492.59
2017-10-31T08:05:10.706Z,101500.38
2017-10-31T08:06:17.346Z,101496.45
2017-10-31T08:07:24.162Z,101499.89
2017-10-31T08:08:30.876Z,101499.08
2017-10-31T08:09:37.598Z,101492.77
2017-10-31T08:10:43.791Z,101499.62
2017-10-31T08:11:50.204Z,101500.44
2017-10-31T08:12:56.911Z,101503.49
2017-10-31T08:14:03.741Z,101497.38
2017-10-31T08:15:10.455Z,101496.95
2017-10-31T08:16:16.976Z,101500.49
2017-10-31T08:17:23.444Z,101498.69
2017-10-31T08:18:29.743Z,101499.50
2017-10-31T08:19:36.065Z,101503.42
2017-10-31T08:20:43.652Z,101503.48
2017-10-31T08:21:50.357Z,101502.62
2017-10-31T08:22:57.007Z,101501.30
2017-10-31T08:24:03.662Z,101498.76
2017-10-31T08:25:10.333Z,101501.81
2017-10-31T08:26:17.026Z,101490.95
2017-10-31T08:27:23.435Z,101496.64
2017-10-31T08:28:29.901Z,101494.84
2017-10-31T08:29:36.289Z,101499.80
2017-10-31T08:30:42.674Z,101499.23
2017-10-31T08:31:49.448Z,101506.98
2017-10-31T08:32:56.717Z,101505.66
2017-10-31T08:34:03.418Z,101512.20
2017-10-31T08:35:10.014Z,101503.04
2017-10-31T08:36:15.700Z,101506.10
2017-10-31T08:37:28.309Z,101507.09
2017-10-31T08:38:37.783Z,101513.25
2017-10-31T08:39:44.488Z,101509.59
2017-10-31T08:40:50.125Z,101510.09
2017-10-31T08:41:56.256Z,101506.92
2017-10-31T08:43:02.401Z,101507.86
2017-10-31T08:44:08.483Z,101512.77
2017-10-31T08:45:14.602Z,101510.64
2017-10-31T08:46:20.448Z,101510.09
2017-10-31T08:47:26.563Z,101504.91
2017-10-31T08:48:32.678Z,101510.63
2017-10-31T08:49:38.769Z,101508.72
2017-10-31T08:50:44.684Z,101512.26
2017-10-31T08:51:50.874Z,101520.55
2017-10-31T08:52:56.582Z,101516.95
2017-10-31T08:54:02.643Z,101509.86
2017-10-31T08:55:08.708Z,101513.38
2017-10-31T08:56:14.771Z,101515.96
2017-10-31T08:57:20.945Z,101517.38
2017-10-31T08:58:27.069Z,101516.07
2017-10-31T08:59:32.494Z,101514.53
2017-10-31T09:00:38.486Z,101517.27
2017-10-31T09:01:44.584Z,101515.84
2017-10-31T09:02:50.681Z,101520.69
2017-10-31T09:03:59.790Z,101521.20
2017-10-31T09:05:05.881Z,101517.70
2017-10-31T09:06:11.963Z,101512.84
2017-10-31T09:07:18.060Z,101515.83
2017-10-31T09:08:24.163Z,101515.44
2017-10-31T09:09:30.286Z,101516.76
2017-10-31T09:10:36.342Z,101519.06
2017-10-31T09:11:44.322Z,101517.38
2017-10-31T09:12:50.422Z,101518.78
2017-10-31T09:13:57.077Z,101516.70
2017-10-31T09:15:04.170Z,101515.17
2017-10-31T09:16:11.006Z,101521.05
2017-10-31T09:17:18.036Z,101522.80
2017-10-31T09:18:25.141Z,101523.61
2017-10-31T09:19:32.975Z,101519.80
2017-10-31T09:20:40.185Z,101516.30
2017-10-31T09:21:47.121Z,101520.98
2017-10-31T09:22:54.172Z,101511.98
2017-10-31T09:24:00.791Z,101513.53
2017-10-31T09:25:06.873Z,101517.47
2017-10-31T09:26:12.945Z,101518.63
2017-10-31T09:27:19.012Z,101519.88
2017-10-31T09:28:25.087Z,101525.25
2017-10-31T09:29:31.180Z,101515.94
2017-10-31T09:30:38.815Z,101515.34
2017-10-31T09:31:44.879Z,101519.20
2017-10-31T09:32:51.008Z,101519.71
2017-10-31T09:33:57.038Z,101520.99
2017-10-31T09:35:03.122Z,101516.65
2017-10-31T09:36:09.189Z,101517.66
2017-10-31T09:37:15.296Z,101524.66
2017-10-31T09:38:21.399Z,101518.34
2017-10-31T09:39:27.545Z,101528.46
2017-10-31T09:40:36.145Z,101524.38
2017-10-31T09:41:42.215Z,101525.67
2017-10-31T09:42:48.324Z,101526.31
2017-10-31T09:43:54.390Z,101515.83
2017-10-31T09:45:00.438Z,101515.76
2017-10-31T09:46:06.516Z,101516.48
2017-10-31T09:47:12.608Z,101510.89
2017-10-31T09:48:18.691Z,101511.09
2017-10-31T09:49:24.403Z,101512.70
2017-10-31T09:50:30.074Z,101505.11
2017-10-31T09:51:36.136Z,101499.58
2017-10-31T09:52:42.207Z,101499.92
2017-10-31T09:53:48.318Z,101501.14
2017-10-31T09:54:54.434Z,101502.72
2017-10-31T09:56:00.487Z,101510.28
2017-10-31T09:57:06.562Z,101507.05
2017-10-31T09:58:12.615Z,101507.64
2017-10-31T09:59:18.717Z,101508.32
2017-10-31T10:00:24.782Z,101506.94
2017-10-31T10:01:35.340Z,101508.88
2017-10-31T10:02:42.222Z,101510.88
2017-10-31T10:03:48.324Z,101505.09
2017-10-31T10:04:54.403Z,101511.48
2017-10-31T10:06:00.493Z,101503.63
2017-10-31T10:07:06.619Z,101505.70
2017-10-31T10:08:12.700Z,101501.60
2017-10-31T10:09:18.815Z,101507.27
2017-10-31T10:10:24.890Z,101505.95
2017-10-31T10:11:30.946Z,101504.54
2017-10-31T10:12:37.052Z,101503.33
2017-10-31T10:13:43.229Z,101492.75
2017-10-31T10:14:49.299Z,101499.25
2017-10-31T10:15:55.358Z,101495.91
2017-10-31T10:17:01.460Z,101497.67
2017-10-31T10:18:07.615Z,101497.39
2017-10-31T10:19:13.752Z,101498.28
2017-10-31T10:20:19.802Z,101496.24
2017-10-31T10:21:25.859Z,101503.08
2017-10-31T10:22:31.922Z,101489.97
2017-10-31T10:23:37.996Z,101500.99
2017-10-31T10:24:44.079Z,101497.49
2017-10-31T10:25:50.139Z,101500.99
2017-10-31T10:26:56.192Z,101504.13
2017-10-31T10:28:02.247Z,101500.11
2017-10-31T10:29:09.291Z,101501.20
2017-10-31T10:30:15.460Z,101499.36
2017-10-31T10:31:21.558Z,101495.02
2017-10-31T10:32:27.652Z,101497.27
2017-10-31T10:33:33.748Z,101490.66
2017-10-31T10:34:39.808Z,101496.70
2017-10-31T10:35:45.872Z,101492.15
2017-10-31T10:36:51.941Z,101487.70
2017-10-31T10:37:58.003Z,101490.38
2017-10-31T10:39:03.553Z,101489.37
2017-10-31T10:40:09.893Z,101486.20
2017-10-31T10:41:15.992Z,101491.95
2017-10-31T10:42:22.030Z,101484.20
2017-10-31T10:43:28.088Z,101487.23
2017-10-31T10:44:36.875Z,101486.25
2017-10-31T10:45:43.130Z,101490.20
2017-10-31T10:46:49.220Z,101488.92
2017-10-31T10:47:55.303Z,101488.88
2017-10-31T10:49:01.049Z,101489.63
2017-10-31T10:50:07.103Z,101487.42
2017-10-31T10:51:13.214Z,101492.53
2017-10-31T10:52:19.269Z,101485.10
2017-10-31T10:53:25.340Z,101486.78
2017-10-31T10:54:31.347Z,101485.77
2017-10-31T10:55:37.418Z,101480.06
2017-10-31T10:56:43.510Z,101483.77
2017-10-31T10:57:49.646Z,101476.11
2017-10-31T10:58:55.714Z,101476.92
2017-10-31T11:00:01.456Z,101481.27
2017-10-31T11:01:06.959Z,101472.70
2017-10-31T11:02:12.316Z,101472.73
2017-10-31T11:03:19.771Z,101468.97
2017-10-31T11:04:32.433Z,101468.27
2017-10-31T11:05:38.156Z,101466.77
2017-10-31T11:06:44.235Z,101466.08
2017-10-31T11:07:50.310Z,101460.11
2017-10-31T11:08:57.787Z,101460.59
2017-10-31T11:10:03.483Z,101457.05
2017-10-31T11:11:09.560Z,101457.97
2017-10-31T11:12:15.635Z,101461.71
2017-10-31T11:13:21.717Z,101459.17
2017-10-31T11:14:27.858Z,101459.23
2017-10-31T11:15:33.936Z,101461.39
2017-10-31T11:16:40.010Z,101456.55
2017-10-31T11:17:46.072Z,101460.48
2017-10-31T11:18:51.911Z,101461.34
2017-10-31T11:19:57.980Z,101463.16
2017-10-31T11:21:03.403Z,101465.06
2017-10-31T11:22:08.723Z,101464.45
2017-10-31T11:23:14.450Z,101460.53
2017-10-31T11:24:20.562Z,101456.58
2017-10-31T11:25:27.635Z,101470.70
2017-10-31T11:26:34.530Z,101465.62
2017-10-31T11:27:40.624Z,101463.52
2017-10-31T11:28:46.686Z,101467.36
2017-10-31T11:29:52.794Z,101471.28
2017-10-31T11:30:58.868Z,101472.17
2017-10-31T11:32:04.930Z,101469.66
2017-10-31T11:33:11.994Z,101463.22
2017-10-31T11:34:18.118Z,101470.23
2017-10-31T11:35:23.656Z,101472.56
2017-10-31T11:36:29.359Z,101472.59
2017-10-31T11:37:35.436Z,101466.19
2017-10-31T11:38:41.499Z,101472.80
2017-10-31T11:39:47.597Z,101477.91
2017-10-31T11:40:53.690Z,101472.23
2017-10-31T11:41:59.812Z,101469.65
2017-10-31T11:43:05.874Z,101470.55
2017-10-31T11:44:11.985Z,101468.42
2017-10-31T11:45:18.138Z,101461.45
2017-10-31T11:46:28.556Z,101463.48
2017-10-31T11:47:37.586Z,101458.23
2017-10-31T11:48:43.639Z,101463.84
2017-10-31T11:49:49.780Z,101458.15
2017-10-31T11:50:55.847Z,101454.97
2017-10-31T11:52:02.381Z,101456.03
2017-10-31T11:53:09.089Z,101453.77
2017-10-31T11:54:15.180Z,101454.47
2017-10-31T11:55:20.918Z,101453.52
2017-10-31T11:56:26.985Z,101448.64
2017-10-31T11:57:33.147Z,101453.77
2017-10-31T11:58:39.260Z,101445.03
2017-10-31T11:59:45.387Z,101447.05
2017-10-31T12:00:51.521Z,101445.30
2017-10-31T12:01:57.409Z,101440.17
2017-10-31T12:03:03.490Z,101442.48
2017-10-31T12:04:09.563Z,101444.71
2017-10-31T12:05:15.637Z,101440.17
2017-10-31T12:06:21.572Z,101434.05
2017-10-31T12:07:27.647Z,101431.70
2017-10-31T12:08:33.391Z,101427.31
2017-10-31T12:09:39.503Z,101434.71
2017-10-31T12:10:45.635Z,101436.33
2017-10-31T12:11:51.724Z,101428.08
2017-10-31T12:12:57.834Z,101431.52
2017-10-31T12:14:03.940Z,101427.02
2017-10-31T12:15:13.870Z,101429.22
2017-10-31T12:16:19.994Z,101420.70
2017-10-31T12:17:26.047Z,101428.77
2017-10-31T12:18:32.147Z,101426.73
2017-10-31T12:19:38.213Z,101425.33
2017-10-31T12:20:44.270Z,101417.94
2017-10-31T12:21:50.378Z,101416.47
2017-10-31T12:22:56.782Z,101419.61
2017-10-31T12:24:02.459Z,101418.08
2017-10-31T12:25:08.197Z,101418.97
2017-10-31T12:26:14.328Z,101419.43
2017-10-31T12:27:20.423Z,101412.23
2017-10-31T12:28:26.828Z,101416.44
2017-10-31T12:29:32.959Z,101419.95
2017-10-31T12:30:38.679Z,101409.82
2017-10-31T12:31:44.757Z,101419.25
2017-10-31T12:32:54.583Z,101420.78
2017-10-31T12:34:00.681Z,101421.03
2017-10-31T12:35:06.792Z,101422.23
2017-10-31T12:36:12.869Z,101420.73